createdAt,value
2019-03-20T00:04:01.315Z,75.33
2019-03-20T00:09:11.569Z,76.50
2019-03-20T00:14:21.190Z,77.78
2019-03-20T00:19:28.475Z,76.11
2019-03-20T00:24:34.715Z,73.12
2019-03-20T00:29:43.224Z,69.50
2019-03-20T00:35:00.822Z,77.00
2019-03-20T00:40:05.156Z,79.00
2019-03-20T00:45:14.099Z,77.22
2019-03-20T00:50:24.731Z,76.89
2019-03-20T00:55:32.781Z,78.67
2019-03-20T01:00:43.191Z,78.56
2019-03-20T01:05:51.146Z,77.67
2019-03-20T01:10:58.090Z,72.00
2019-03-20T01:16:02.426Z,77.00
2019-03-20T01:21:12.743Z,75.00
2019-03-20T01:26:22.402Z,74.11
2019-03-20T01:31:26.941Z,70.00
2019-03-20T01:36:31.567Z,75.00
2019-03-20T01:41:39.584Z,72.78
2019-03-20T01:46:48.327Z,72.00
2019-03-20T01:51:58.523Z,75.78
2019-03-20T01:57:07.196Z,68.62
2019-03-20T02:02:12.587Z,66.29
2019-03-20T02:07:19.591Z,70.89
2019-03-20T02:12:27.487Z,69.37
2019-03-20T02:17:33.900Z,71.62
2019-03-20T02:22:41.099Z,66.37
2019-03-20T02:27:46.175Z,70.25
2019-03-20T02:32:50.518Z,69.00
2019-03-20T02:37:54.899Z,72.50
2019-03-20T02:43:01.867Z,72.25
2019-03-20T02:48:09.595Z,76.78
2019-03-20T02:53:18.354Z,75.62
2019-03-20T02:58:22.787Z,74.50
2019-03-20T03:03:33.256Z,74.78
2019-03-20T03:08:41.117Z,74.11
2019-03-20T03:13:45.471Z,69.75
2019-03-20T03:18:55.045Z,68.00
2019-03-20T03:24:04.560Z,68.50
2019-03-20T03:29:10.736Z,61.25
2019-03-20T03:34:17.056Z,62.00
2019-03-20T03:39:26.371Z,64.83
2019-03-20T03:44:33.313Z,61.44
2019-03-20T03:49:38.416Z,64.57
2019-03-20T03:54:43.570Z,69.75
2019-03-20T03:59:52.298Z,64.62
2019-03-20T04:04:56.649Z,62.67
2019-03-20T04:10:07.524Z,59.56
2019-03-20T04:15:18.613Z,57.83
2019-03-20T04:20:24.759Z,59.50
2019-03-20T04:25:31.864Z,57.67
2019-03-20T04:30:38.987Z,57.50
2019-03-20T04:35:43.335Z,59.17
2019-03-20T04:40:53.339Z,58.45
2019-03-20T04:46:00.859Z,60.75
2019-03-20T04:51:05.903Z,59.71
2019-03-20T04:56:15.147Z,59.67
2019-03-20T05:01:21.321Z,58.50
2019-03-20T05:06:29.595Z,60.78
2019-03-20T05:11:36.567Z,62.50
2019-03-20T05:16:45.285Z,64.56
2019-03-20T05:21:54.041Z,68.00
2019-03-20T05:27:00.231Z,69.62
2019-03-20T05:32:07.654Z,70.14
2019-03-20T05:37:17.989Z,67.22
2019-03-20T05:42:25.208Z,71.25
2019-03-20T05:47:35.415Z,67.70
2019-03-20T05:52:47.134Z,62.40
2019-03-20T05:57:58.144Z,68.37
2019-03-20T06:03:07.055Z,69.60
2019-03-20T06:08:14.143Z,69.60
2019-03-20T06:13:22.984Z,64.87
2019-03-20T06:18:33.618Z,69.69
2019-03-20T06:23:43.188Z,65.83
2019-03-20T06:28:52.262Z,61.33
2019-03-20T06:33:58.148Z,61.50
2019-03-20T06:39:07.291Z,63.63
2019-03-20T06:44:15.779Z,57.00
2019-03-20T06:49:22.259Z,56.44
2019-03-20T06:54:29.120Z,60.88
2019-03-20T06:59:39.779Z,63.67
2019-03-20T07:04:56.108Z,69.22
2019-03-20T07:10:13.458Z,65.12
2019-03-20T07:15:21.921Z,65.75
2019-03-20T07:20:29.371Z,68.11
2019-03-20T07:25:37.762Z,61.00
2019-03-20T07:30:41.551Z,69.00
2019-03-20T07:35:45.223Z,67.80
2019-03-20T07:40:49.098Z,74.60
2019-03-20T07:45:58.479Z,69.87
2019-03-20T07:51:05.546Z,78.67
2019-03-20T07:56:10.568Z,75.00
2019-03-20T08:01:14.659Z,75.60
2019-03-20T08:06:18.342Z,72.40
2019-03-20T08:11:24.480Z,74.11
2019-03-20T08:16:28.978Z,67.67
2019-03-20T08:21:34.996Z,68.00
2019-03-20T08:26:38.894Z,70.50
2019-03-20T08:31:44.023Z,67.75
2019-03-20T08:36:49.206Z,64.00
2019-03-20T08:41:55.176Z,58.25
2019-03-20T08:47:01.666Z,62.25
2019-03-20T08:52:09.899Z,58.25
2019-03-20T08:57:16.427Z,56.63
2019-03-20T09:02:23.746Z,50.63
2019-03-20T09:07:27.812Z,49.50
2019-03-20T09:12:32.530Z,53.75
2019-03-20T09:17:36.455Z,35.67
2019-03-20T09:22:43.074Z,31.50
2019-03-20T09:27:49.737Z,47.62
2019-03-20T09:32:56.154Z,31.25
2019-03-20T09:37:59.903Z,38.00
2019-03-20T09:43:08.258Z,31.75
2019-03-20T09:48:13.631Z,32.00
2019-03-20T09:53:18.711Z,30.43
2019-03-20T09:58:21.854Z,32.33
2019-03-20T10:03:25.622Z,30.50
2019-03-20T10:08:31.400Z,26.00
2019-03-20T10:13:36.278Z,20.00
2019-03-20T10:18:40.410Z,21.00
2019-03-20T10:23:43.607Z,37.00
2019-03-20T10:28:46.770Z,19.67
2019-03-20T10:33:53.243Z,29.75
2019-03-20T10:39:06.358Z,31.25
2019-03-20T10:44:05.615Z,29.67
2019-03-20T10:49:10.634Z,26.14
2019-03-20T10:54:18.108Z,36.88
2019-03-20T10:59:23.726Z,19.57
2019-03-20T11:04:28.200Z,29.00
2019-03-20T11:09:35.007Z,27.71
2019-03-20T11:14:40.810Z,19.71
2019-03-20T11:19:45.782Z,22.86
2019-03-20T11:24:52.486Z,20.88
2019-03-20T11:29:57.454Z,20.71
2019-03-20T11:35:04.350Z,22.50
2019-03-20T11:40:19.711Z,19.43
2019-03-20T11:45:26.895Z,23.14
2019-03-20T11:50:36.160Z,18.29
2019-03-20T11:55:39.110Z,19.67
2019-03-20T12:00:42.039Z,22.33
2019-03-20T12:05:46.726Z,17.50
2019-03-20T12:10:52.573Z,42.33
2019-03-20T12:15:57.102Z,50.75
2019-03-20T12:21:04.625Z,34.38
2019-03-20T12:26:12.519Z,40.86
2019-03-20T12:31:18.944Z,43.63
2019-03-20T12:36:26.668Z,35.57
2019-03-20T12:41:29.678Z,45.50
2019-03-20T12:46:41.476Z,39.00
2019-03-20T12:51:45.002Z,42.71
2019-03-20T12:56:48.492Z,43.67
2019-03-20T13:01:54.895Z,44.75
2019-03-20T13:07:02.027Z,35.13
2019-03-20T13:12:06.523Z,35.00
2019-03-20T13:17:10.454Z,32.33
2019-03-20T13:22:14.986Z,29.25
2019-03-20T13:27:18.478Z,30.67
2019-03-20T13:32:22.228Z,25.33
2019-03-20T13:37:27.754Z,23.57
2019-03-20T13:42:31.460Z,33.00
2019-03-20T13:47:39.554Z,36.75
2019-03-20T13:52:43.893Z,29.25
2019-03-20T13:57:47.604Z,26.00
2019-03-20T14:02:54.950Z,27.00
2019-03-20T14:08:02.934Z,22.80
2019-03-20T14:13:09.043Z,25.12
2019-03-20T14:18:16.930Z,27.50
2019-03-20T14:23:20.330Z,21.00
2019-03-20T14:28:26.462Z,30.75
2019-03-20T14:33:34.178Z,24.75
2019-03-20T14:38:38.498Z,32.00
2019-03-20T14:43:45.964Z,26.37
2019-03-20T14:48:49.754Z,26.00
2019-03-20T14:53:57.907Z,28.12
2019-03-20T14:59:03.448Z,27.00
2019-03-20T15:04:10.743Z,31.43
2019-03-20T15:09:14.840Z,33.40
2019-03-20T15:14:47.362Z,33.00
2019-03-20T15:20:04.775Z,31.61
2019-03-20T15:25:13.441Z,34.58
2019-03-20T15:30:22.662Z,22.50
2019-03-20T15:35:27.293Z,29.00
2019-03-20T15:40:40.950Z,34.29
2019-03-20T15:45:51.888Z,26.00
2019-03-20T15:51:01.244Z,25.00
2019-03-20T15:56:11.214Z,28.12
2019-03-20T16:01:22.496Z,25.25
2019-03-20T16:06:27.647Z,21.71
2019-03-20T16:11:41.423Z,23.25
2019-03-20T16:16:51.115Z,38.75
2019-03-20T16:22:06.479Z,23.05
2019-03-20T16:27:12.160Z,22.50
2019-03-20T16:32:41.518Z,25.70
2019-03-20T16:37:46.565Z,48.14
2019-03-20T16:42:55.556Z,28.50
2019-03-20T16:48:05.465Z,30.67
2019-03-20T16:53:13.491Z,40.78
2019-03-20T16:58:27.761Z,53.05
2019-03-20T17:03:32.038Z,30.33
2019-03-20T17:08:35.170Z,32.00
2019-03-20T17:13:38.614Z,29.00
2019-03-20T17:19:08.139Z,32.39
2019-03-20T17:24:18.128Z,35.08
2019-03-20T17:29:21.081Z,27.00
2019-03-20T17:34:25.478Z,53.00
2019-03-20T17:39:44.514Z,53.70
2019-03-20T17:44:52.452Z,54.80
2019-03-20T17:49:55.522Z,72.00
2019-03-20T17:55:06.349Z,59.79
2019-03-20T18:00:13.245Z,50.86
2019-03-20T18:05:25.114Z,52.36
2019-03-20T18:10:28.346Z,52.00
2019-03-20T18:15:37.295Z,57.55
2019-03-20T18:20:44.695Z,59.00
2019-03-20T18:32:22.430Z,57.05
2019-03-20T18:45:52.321Z,61.00
2019-03-20T18:50:56.614Z,69.50
2019-03-20T18:56:15.486Z,64.23
2019-03-20T19:01:27.848Z,67.94
2019-03-20T19:06:35.411Z,66.00
2019-03-20T19:11:47.147Z,65.50
2019-03-20T19:16:54.340Z,67.10
2019-03-20T19:22:07.080Z,71.35
2019-03-20T19:27:20.053Z,71.50
2019-03-20T19:32:30.042Z,69.25
2019-03-20T19:37:48.709Z,74.45
2019-03-20T19:42:58.699Z,71.33
2019-03-20T19:48:07.116Z,67.00
2019-03-20T19:53:13.568Z,62.50
2019-03-20T19:58:20.358Z,74.00
2019-03-20T20:08:28.551Z,67.33
2019-03-20T20:13:33.531Z,59.00
2019-03-20T20:18:41.394Z,66.87
2019-03-20T20:23:50.471Z,69.11
2019-03-20T20:28:59.551Z,65.37
2019-03-20T20:34:04.540Z,65.00
2019-03-20T20:39:09.082Z,62.00
2019-03-20T20:44:16.327Z,66.25
2019-03-20T20:49:19.537Z,63.00
2019-03-20T21:03:16.085Z,64.61
2019-03-20T21:08:20.379Z,65.00
2019-03-20T21:13:30.430Z,65.91
2019-03-20T21:18:47.306Z,63.75
2019-03-20T21:24:12.594Z,65.67
2019-03-20T21:29:33.504Z,60.63
2019-03-20T21:34:51.427Z,67.00
2019-03-20T21:39:55.837Z,62.50
2019-03-20T21:45:18.510Z,73.25
2019-03-20T21:50:43.311Z,62.88
2019-03-20T21:56:08.139Z,64.50
2019-03-20T22:01:18.111Z,65.00
2019-03-20T22:06:33.350Z,66.25
2019-03-20T22:11:38.958Z,63.25
2019-03-20T22:17:05.124Z,60.63
2019-03-20T22:22:30.536Z,54.50
2019-03-20T22:27:42.394Z,63.25
2019-03-20T22:33:07.424Z,63.50
2019-03-20T22:38:17.234Z,65.00
2019-03-20T22:43:30.332Z,68.90
2019-03-20T22:48:52.146Z,69.25
2019-03-20T22:54:05.701Z,69.27
2019-03-20T22:59:14.370Z,69.00
2019-03-20T23:04:24.441Z,69.33
2019-03-20T23:09:28.776Z,61.00
2019-03-20T23:14:38.296Z,67.78
2019-03-20T23:19:48.698Z,67.11
2019-03-20T23:24:53.156Z,69.00
2019-03-20T23:30:05.103Z,64.89
2019-03-20T23:35:09.063Z,68.00
2019-03-20T23:40:17.759Z,67.25
2019-03-20T23:45:24.958Z,69.50
2019-03-20T23:50:33.389Z,70.56
2019-03-20T23:55:38.386Z,71.00
